Time;durP1;ratioP1;P1;durP2;ratioP2;P2;SDS_P1;SDS_P2;PMS_P1;PMS_P2;Temp;Humidity;BMP_temperature;BMP_pressure;BME280_temperature;BME280_humidity;BME280_pressure;Samples;Min_cycle;Max_cycle;Signal;HPM_P1;HPM_P2
2024/01/28 00:00:57;;;;;;;4.30;2.93;;;15.40;60.40;16.30;102506.00;;;;5035655;28;20186;-45
2024/01/28 00:03:23;;;;;;;4.67;2.70;;;15.40;60.00;16.30;102500.00;;;;5035588;28;20540;-46
2024/01/28 00:05:51;;;;;;;3.43;2.87;;;15.40;60.10;16.20;102507.00;;;;5036687;28;20260;-45
2024/01/28 00:08:17;;;;;;;4.53;3.10;;;15.40;60.10;16.20;102499.00;;;;5031782;28;20241;-45
2024/01/28 00:10:43;;;;;;;3.23;2.80;;;15.30;60.10;16.20;102493.00;;;;5036208;28;20212;-45
2024/01/28 00:13:08;;;;;;;3.90;2.87;;;15.30;60.10;16.20;102491.00;;;;5037423;28;20602;-45
2024/01/28 00:15:34;;;;;;;4.40;2.90;;;15.20;60.00;16.20;102484.00;;;;5035863;28;20175;-45
2024/01/28 00:18:00;;;;;;;3.50;2.70;;;15.20;60.10;16.20;102492.00;;;;5037469;28;20287;-45
2024/01/28 00:20:25;;;;;;;3.73;2.70;;;15.20;60.20;16.10;102482.00;;;;5035920;28;20233;-45
2024/01/28 00:22:51;;;;;;;3.23;2.70;;;15.20;60.20;16.10;102493.00;;;;5037345;28;20178;-45
2024/01/28 00:25:17;;;;;;;3.70;2.67;;;15.20;60.30;16.10;102507.00;;;;5036069;28;20175;-46
2024/01/28 00:27:43;;;;;;;3.53;2.90;;;15.20;60.40;16.10;102491.00;;;;5036153;28;20206;-45
2024/01/28 00:30:10;;;;;;;3.87;2.80;;;15.20;60.40;16.10;102481.00;;;;5037106;28;20444;-45
2024/01/28 00:32:35;;;;;;;4.17;2.80;;;15.20;60.50;16.10;102484.00;;;;5035574;28;20663;-44
2024/01/28 00:35:01;;;;;;;3.73;2.90;;;15.10;60.40;16.00;102478.00;;;;5039937;28;20179;-47
2024/01/28 00:37:27;;;;;;;4.60;3.17;;;15.10;60.50;16.00;102482.00;;;;5033647;28;20183;-45
2024/01/28 00:39:52;;;;;;;3.10;2.60;;;15.10;60.50;16.00;102479.00;;;;5037170;28;20175;-44
2024/01/28 00:42:18;;;;;;;3.07;2.70;;;15.10;60.60;16.00;102472.00;;;;5035459;28;20193;-45
2024/01/28 00:44:44;;;;;;;2.93;2.63;;;15.10;60.60;16.00;102459.00;;;;5035919;28;20630;-45
2024/01/28 00:47:10;;;;;;;3.23;2.50;;;15.10;60.60;16.00;102469.00;;;;5036511;28;20206;-45
2024/01/28 00:49:35;;;;;;;4.07;2.70;;;15.00;60.60;16.00;102454.00;;;;5035308;28;20237;-44
2024/01/28 00:52:02;;;;;;;3.03;2.57;;;15.00;60.60;16.00;102454.00;;;;5035863;28;20175;-44
2024/01/28 00:54:27;;;;;;;2.80;2.60;;;15.00;60.60;15.90;102449.00;;;;5035206;28;20167;-45
2024/01/28 00:56:53;;;;;;;3.10;2.80;;;15.00;60.70;15.90;102447.00;;;;5036669;28;20202;-45
2024/01/28 00:59:22;;;;;;;3.10;2.80;;;15.00;60.70;15.90;102438.00;;;;5035348;28;20557;-45
2024/01/28 01:01:48;;;;;;;3.00;2.70;;;14.90;60.70;15.90;102437.00;;;;5035614;28;20175;-46
2024/01/28 01:04:14;;;;;;;2.60;2.40;;;14.90;60.70;15.90;102442.00;;;;5034724;28;20248;-45
2024/01/28 01:06:43;;;;;;;3.10;2.50;;;14.90;60.70;15.90;102439.00;;;;5033965;28;20221;-45
2024/01/28 01:09:09;;;;;;;2.87;2.40;;;14.90;60.80;15.80;102423.00;;;;5034688;28;20182;-45
2024/01/28 01:11:35;;;;;;;3.10;2.50;;;14.90;60.90;15.80;102443.00;;;;5034576;28;20181;-45
2024/01/28 01:14:01;;;;;;;3.70;2.60;;;14.80;60.70;15.80;102423.00;;;;5035971;28;20186;-45
2024/01/28 01:16:27;;;;;;;2.53;2.30;;;14.90;60.90;15.80;102435.00;;;;5033751;28;20273;-45
2024/01/28 01:18:54;;;;;;;3.63;2.60;;;14.80;60.90;15.80;102423.00;;;;5036038;28;20174;-45
2024/01/28 01:21:19;;;;;;;3.67;2.50;;;14.80;60.90;15.80;102432.00;;;;5033569;28;20175;-45
2024/01/28 01:23:45;;;;;;;2.90;2.60;;;14.80;60.90;15.80;102415.00;;;;5034835;28;20274;-46
2024/01/28 01:26:11;;;;;;;2.97;2.33;;;14.80;60.90;15.70;102420.00;;;;5034739;28;20189;-45
2024/01/28 01:28:36;;;;;;;2.60;2.30;;;14.80;60.90;15.70;102423.00;;;;5034032;28;20175;-45
2024/01/28 01:31:03;;;;;;;2.87;2.50;;;14.80;61.00;15.70;102394.00;;;;5035332;28;20228;-44
2024/01/28 01:33:28;;;;;;;2.83;2.40;;;14.80;61.10;15.70;102412.00;;;;5032521;28;20649;-45
2024/01/28 01:35:54;;;;;;;2.93;2.50;;;14.80;61.10;15.70;102414.00;;;;5038186;28;20240;-45
2024/01/28 01:38:20;;;;;;;3.40;2.50;;;14.70;61.10;15.70;102420.00;;;;5036004;28;20194;-46
2024/01/28 01:40:46;;;;;;;2.50;2.30;;;14.70;61.10;15.70;102420.00;;;;5045071;28;20185;-45
2024/01/28 01:43:13;;;;;;;3.07;2.50;;;14.70;61.10;15.70;102419.00;;;;5036173;28;20178;-45
2024/01/28 01:45:40;;;;;;;2.97;2.30;;;14.70;61.10;15.70;102411.00;;;;5034373;28;20182;-46
2024/01/28 01:48:11;;;;;;;3.37;2.40;;;14.70;61.20;15.60;102412.00;;;;5032787;28;20203;-45
2024/01/28 01:50:38;;;;;;;2.40;2.20;;;14.70;61.30;15.60;102416.00;;;;5032951;28;20197;-45
2024/01/28 01:53:07;;;;;;;2.47;2.27;;;14.70;61.40;15.60;102417.00;;;;5041094;28;20213;-45
2024/01/28 01:55:36;;;;;;;2.63;2.30;;;14.60;61.30;15.60;102418.00;;;;5034300;28;20172;-45
2024/01/28 01:58:03;;;;;;;2.60;2.30;;;14.60;61.30;15.50;102414.00;;;;5035420;28;20285;-45
2024/01/28 02:00:29;;;;;;;2.63;2.20;;;14.60;61.20;15.50;102410.00;;;;5032228;28;20278;-45
2024/01/28 02:02:54;;;;;;;2.40;2.20;;;14.60;61.30;15.50;102403.00;;;;5035403;28;20618;-45
2024/01/28 02:05:20;;;;;;;2.60;2.40;;;14.60;61.30;15.50;102411.00;;;;5033083;28;20594;-46
2024/01/28 02:07:46;;;;;;;2.53;2.30;;;14.50;61.20;15.50;102401.00;;;;5034126;28;20205;-46
2024/01/28 02:10:12;;;;;;;2.47;2.23;;;14.50;61.30;15.50;102397.00;;;;5034199;28;20210;-46
2024/01/28 02:12:38;;;;;;;3.00;2.50;;;14.50;61.40;15.50;102393.00;;;;5032934;28;20182;-44
2024/01/28 02:15:09;;;;;;;2.50;2.30;;;14.50;61.50;15.40;102395.00;;;;5034947;28;20173;-45
2024/01/28 02:17:35;;;;;;;2.40;2.20;;;14.50;61.50;15.40;102399.00;;;;5033401;28;20213;-45
2024/01/28 02:20:01;;;;;;;3.00;2.20;;;14.50;61.50;15.40;102394.00;;;;5033582;28;20663;-48
2024/01/28 02:22:26;;;;;;;2.60;2.23;;;14.40;61.30;15.40;102390.00;;;;5033195;28;20213;-45
2024/01/28 02:24:52;;;;;;;2.50;2.20;;;14.40;61.30;15.40;102391.00;;;;5034566;28;20687;-45
2024/01/28 02:27:18;;;;;;;3.20;2.30;;;14.40;61.30;15.40;102389.00;;;;5033542;28;20280;-45
2024/01/28 02:29:43;;;;;;;2.60;2.40;;;14.40;61.30;15.30;102397.00;;;;5033435;28;20569;-46
2024/01/28 02:32:15;;;;;;;3.03;2.30;;;14.40;61.40;15.30;102371.00;;;;5033615;28;20185;-46
2024/01/28 02:34:41;;;;;;;4.07;2.30;;;14.50;61.70;15.40;102382.00;;;;5035088;28;20178;-46
2024/01/28 02:37:07;;;;;;;2.80;2.33;;;14.50;61.90;15.40;102386.00;;;;5034495;28;20695;-46
2024/01/28 02:39:33;;;;;;;3.30;2.30;;;14.50;61.90;15.40;102381.00;;;;5032767;28;20166;-46
2024/01/28 02:41:58;;;;;;;2.67;2.23;;;14.60;62.10;15.50;102374.00;;;;5034432;28;20264;-46
2024/01/28 02:44:24;;;;;;;3.23;2.20;;;14.60;62.00;15.50;102373.00;;;;5032645;28;20175;-45
2024/01/28 02:46:50;;;;;;;4.40;2.23;;;14.60;61.50;15.50;102363.00;;;;5033692;28;20202;-45
2024/01/28 02:49:16;;;;;;;3.03;2.13;;;14.60;61.20;15.30;102365.00;;;;5032964;28;20517;-44
2024/01/28 02:51:45;;;;;;;2.60;2.20;;;14.60;61.30;15.50;102366.00;;;;5032747;28;20175;-46
2024/01/28 02:54:11;;;;;;;4.20;2.40;;;14.50;61.10;15.50;102349.00;;;;5033825;28;20657;-44
2024/01/28 02:56:37;;;;;;;2.77;2.30;;;14.60;60.90;15.50;102352.00;;;;5032290;28;20226;-44
2024/01/28 02:59:03;;;;;;;2.93;2.10;;;14.50;60.80;15.50;102343.00;;;;5034255;28;20170;-46
2024/01/28 03:01:29;;;;;;;3.40;2.10;;;14.50;61.10;15.50;102340.00;;;;5031488;28;20174;-44
2024/01/28 03:03:55;;;;;;;3.70;2.30;;;14.50;60.90;15.50;102347.00;;;;5033472;28;20186;-44
2024/01/28 03:06:21;;;;;;;2.93;2.13;;;14.50;60.80;15.40;102346.00;;;;5031008;28;20256;-46
2024/01/28 03:08:46;;;;;;;3.30;2.30;;;14.50;60.70;15.40;102350.00;;;;5033646;28;20186;-46
2024/01/28 03:11:12;;;;;;;2.50;1.90;;;14.50;60.50;15.40;102344.00;;;;5033539;28;20202;-46
2024/01/28 03:13:38;;;;;;;2.70;2.20;;;14.60;60.40;15.40;102340.00;;;;5032587;28;20520;-44
2024/01/28 03:16:04;;;;;;;2.70;2.20;;;14.60;60.30;15.40;102344.00;;;;5034474;28;20178;-44
2024/01/28 03:18:30;;;;;;;2.80;2.10;;;14.50;60.10;15.40;102343.00;;;;5038429;28;20294;-48
2024/01/28 03:20:56;;;;;;;2.33;2.13;;;14.60;60.10;15.40;102334.00;;;;5035508;28;20653;-45
2024/01/28 03:23:22;;;;;;;2.63;2.10;;;14.60;60.00;15.40;102328.00;;;;5032574;28;20307;-44
2024/01/28 03:25:50;;;;;;;2.20;2.00;;;14.50;59.90;15.40;102321.00;;;;5033229;28;20661;-45
2024/01/28 03:28:16;;;;;;;2.70;2.17;;;14.50;59.80;15.40;102324.00;;;;5034904;28;20279;-46
2024/01/28 03:30:42;;;;;;;2.20;2.00;;;14.50;59.80;15.40;102319.00;;;;5039621;28;20195;-45
2024/01/28 03:33:07;;;;;;;2.27;2.03;;;14.50;59.70;15.40;102323.00;;;;5034476;28;20178;-44
2024/01/28 03:35:33;;;;;;;2.37;1.93;;;14.50;59.70;15.40;102321.00;;;;5031539;28;20179;-44
2024/01/28 03:37:59;;;;;;;2.23;2.00;;;14.50;59.70;15.40;102312.00;;;;5035203;28;20205;-45
2024/01/28 03:40:26;;;;;;;2.57;2.23;;;14.50;59.60;15.40;102314.00;;;;5032942;28;20178;-48
2024/01/28 03:42:52;;;;;;;2.50;2.07;;;14.50;59.60;15.40;102307.00;;;;5041042;28;20254;-45
2024/01/28 03:45:18;;;;;;;2.87;2.07;;;14.50;59.60;15.30;102307.00;;;;5038040;28;20225;-48
2024/01/28 03:47:43;;;;;;;3.80;2.10;;;14.40;59.70;15.40;102305.00;;;;5036271;28;20271;-45
2024/01/28 03:50:10;;;;;;;2.27;2.07;;;14.50;59.70;15.30;102219.00;;;;5037483;28;20293;-44
2024/01/28 03:52:35;;;;;;;2.50;1.93;;;14.40;59.80;15.40;102316.00;;;;5036057;28;20210;-44
2024/01/28 03:55:01;;;;;;;2.27;2.00;;;14.40;59.80;15.30;102316.00;;;;5037781;28;20206;-45
2024/01/28 03:57:28;;;;;;;2.20;2.00;;;14.40;59.70;15.30;102304.00;;;;5035421;28;21162;-45
2024/01/28 03:59:54;;;;;;;5.30;1.93;;;14.40;59.80;15.30;102299.00;;;;5037704;28;20236;-46
2024/01/28 04:02:20;;;;;;;3.27;2.10;;;14.40;59.70;15.30;102299.00;;;;5034694;28;20182;-45
2024/01/28 04:04:46;;;;;;;3.87;2.00;;;14.40;59.60;15.30;102301.00;;;;5036507;28;20206;-45
2024/01/28 04:07:11;;;;;;;4.00;1.97;;;14.40;59.60;15.30;102294.00;;;;5037808;28;20202;-46
2024/01/28 04:09:37;;;;;;;2.53;2.10;;;14.40;59.50;15.30;102295.00;;;;5035496;28;20206;-45
2024/01/28 04:12:04;;;;;;;2.13;1.93;;;14.40;59.50;15.30;102242.00;;;;5037352;28;20189;-44
2024/01/28 04:14:30;;;;;;;2.30;2.10;;;14.40;59.40;15.30;102294.00;;;;5031359;28;20182;-44
2024/01/28 04:16:57;;;;;;;2.07;1.87;;;14.40;59.50;15.20;102288.00;;;;5036289;28;20203;-44
2024/01/28 04:19:23;;;;;;;2.87;1.90;;;14.40;59.40;15.20;102287.00;;;;5030217;28;20163;-47
2024/01/28 04:21:48;;;;;;;2.30;1.90;;;14.40;59.40;15.20;102281.00;;;;5037272;28;20189;-44
2024/01/28 04:24:14;;;;;;;3.90;2.10;;;14.30;59.30;15.20;102274.00;;;;5037041;28;20192;-44
2024/01/28 04:26:40;;;;;;;2.37;1.90;;;14.40;59.40;15.20;102273.00;;;;5034091;28;20790;-45
2024/01/28 04:29:06;;;;;;;3.50;2.00;;;14.30;59.80;15.20;102267.00;;;;5035875;28;20174;-44
2024/01/28 04:31:31;;;;;;;2.00;1.80;;;14.20;60.10;15.20;102275.00;;;;5035870;28;20210;-44
2024/01/28 04:33:57;;;;;;;2.63;2.00;;;14.10;60.00;15.20;102258.00;;;;5038088;28;20171;-44
2024/01/28 04:36:25;;;;;;;2.90;2.00;;;14.10;60.00;15.20;102247.00;;;;5037797;28;20557;-44
2024/01/28 04:38:51;;;;;;;3.50;2.20;;;14.20;59.90;15.20;102243.00;;;;5037144;28;20736;-44
2024/01/28 04:41:17;;;;;;;3.30;1.93;;;14.20;59.80;15.20;102246.00;;;;5035989;28;20265;-44
2024/01/28 04:43:43;;;;;;;4.70;2.00;;;14.20;59.90;15.20;102239.00;;;;5035846;28;20175;-45
2024/01/28 04:46:08;;;;;;;3.27;1.70;;;14.20;60.10;15.20;102229.00;;;;5036530;28;20175;-43
2024/01/28 04:48:35;;;;;;;3.60;2.17;;;14.20;59.90;15.20;102238.00;;;;5034567;28;20198;-44
2024/01/28 04:51:01;;;;;;;4.93;1.90;;;14.20;59.90;15.20;102237.00;;;;5037469;28;20210;-44
2024/01/28 04:53:27;;;;;;;2.33;1.80;;;14.30;60.00;15.20;102244.00;;;;5035249;28;20179;-45
2024/01/28 04:55:52;;;;;;;4.37;2.10;;;14.10;60.00;15.20;102239.00;;;;5035515;28;20285;-45
2024/01/28 04:58:18;;;;;;;3.13;2.07;;;14.10;60.30;15.20;102244.00;;;;5035524;28;20198;-45
2024/01/28 05:00:44;;;;;;;2.47;2.00;;;14.10;60.40;15.10;102259.00;;;;5034859;28;20183;-45
2024/01/28 05:03:09;;;;;;;3.60;2.17;;;14.10;60.50;15.10;102245.00;;;;5036926;28;20174;-45
2024/01/28 05:05:36;;;;;;;3.20;1.97;;;14.10;60.40;15.10;102253.00;;;;5035043;28;20171;-45
2024/01/28 05:08:01;;;;;;;2.53;2.10;;;14.10;60.40;15.10;102253.00;;;;5037212;28;20225;-50
2024/01/28 05:10:27;;;;;;;4.93;2.00;;;14.10;60.40;15.10;102251.00;;;;5035568;28;20249;-46
2024/01/28 05:12:53;;;;;;;3.10;2.00;;;14.10;60.30;15.10;102248.00;;;;5037297;28;20178;-46
2024/01/28 05:15:19;;;;;;;2.00;1.80;;;14.10;60.20;15.10;102247.00;;;;5035318;28;20203;-46
2024/01/28 05:17:45;;;;;;;2.40;2.00;;;14.10;60.20;15.00;102248.00;;;;5038066;28;20282;-45
2024/01/28 05:20:11;;;;;;;2.17;1.77;;;14.10;60.00;15.00;102242.00;;;;5042737;28;20606;-45
2024/01/28 05:22:38;;;;;;;2.30;1.90;;;14.00;59.90;15.00;102242.00;;;;5023422;28;20641;-45
2024/01/28 05:25:04;;;;;;;2.40;2.00;;;14.00;59.90;15.00;102236.00;;;;5037493;28;20178;-45
2024/01/28 05:27:30;;;;;;;2.00;1.80;;;14.00;59.90;15.00;102232.00;;;;5038752;28;20272;-55
2024/01/28 05:29:58;;;;;;;2.33;2.00;;;14.00;59.90;15.00;102234.00;;;;5039879;28;20214;-52
2024/01/28 05:32:25;;;;;;;3.67;2.00;;;14.00;59.80;15.00;102239.00;;;;5037185;28;20194;-46
2024/01/28 05:34:51;;;;;;;2.00;1.80;;;14.00;60.00;15.00;102238.00;;;;5040891;28;20182;-45
2024/01/28 05:37:17;;;;;;;2.13;1.93;;;13.90;60.30;14.90;102230.00;;;;5035973;28;20211;-45
2024/01/28 05:39:42;;;;;;;3.20;2.07;;;13.90;59.90;14.90;102236.00;;;;5034252;28;20580;-45
2024/01/28 05:42:08;;;;;;;2.57;1.77;;;13.80;60.10;14.90;102235.00;;;;5035776;28;20194;-45
2024/01/28 05:44:34;;;;;;;3.00;2.00;;;13.80;60.10;14.90;102248.00;;;;5033406;28;20182;-45
2024/01/28 05:46:59;;;;;;;4.53;1.90;;;13.90;60.20;14.90;102233.00;;;;5036539;28;20226;-45
2024/01/28 05:49:25;;;;;;;3.63;1.70;;;13.80;60.40;14.90;102239.00;;;;5033647;28;20179;-44
2024/01/28 05:51:51;;;;;;;3.33;1.80;;;13.80;60.50;14.80;102234.00;;;;5035989;28;20710;-44
2024/01/28 05:54:16;;;;;;;5.60;2.00;;;13.90;60.70;14.80;102241.00;;;;5035099;28;20206;-46
2024/01/28 05:56:42;;;;;;;2.47;1.90;;;14.00;60.70;14.90;102245.00;;;;5034036;28;20197;-45
2024/01/28 05:59:08;;;;;;;2.50;1.80;;;14.10;60.60;14.90;102245.00;;;;5036941;28;20264;-45
2024/01/28 06:01:34;;;;;;;3.33;2.13;;;14.20;60.50;14.90;102242.00;;;;5034816;28;20171;-45
2024/01/28 06:04:00;;;;;;;3.37;1.73;;;14.30;60.40;15.00;102241.00;;;;5036628;28;20730;-46
2024/01/28 06:06:25;;;;;;;3.63;1.87;;;14.40;60.10;15.10;102245.00;;;;5033535;28;20186;-45
2024/01/28 06:08:51;;;;;;;4.43;1.73;;;14.60;60.10;15.10;102248.00;;;;5035884;28;20182;-45
2024/01/28 06:11:17;;;;;;;4.33;1.90;;;14.80;59.90;15.20;102249.00;;;;5034740;28;20253;-45
2024/01/28 06:13:42;;;;;;;7.37;2.17;;;14.90;59.80;15.30;102249.00;;;;5034649;28;20167;-44
2024/01/28 06:16:08;;;;;;;3.20;1.90;;;15.10;59.70;15.40;102240.00;;;;5036068;28;20185;-44
2024/01/28 06:18:41;;;;;;;4.80;1.90;;;15.20;59.50;15.50;102239.00;;;;5033200;28;20317;-46
2024/01/28 06:21:07;;;;;;;7.23;2.20;;;15.30;59.40;15.60;102239.00;;;;5032497;28;20186;-45
2024/01/28 06:23:32;;;;;;;3.67;1.73;;;15.50;59.40;15.70;102235.00;;;;5033983;28;20296;-45
2024/01/28 06:25:58;;;;;;;7.30;2.20;;;15.70;59.20;15.80;102246.00;;;;5035771;28;20178;-45
2024/01/28 06:28:24;;;;;;;3.67;2.10;;;15.80;59.10;15.90;102230.00;;;;5033670;28;20194;-45
2024/01/28 06:30:49;;;;;;;3.27;1.90;;;15.90;59.70;16.00;102224.00;;;;5035137;28;20264;-45
2024/01/28 06:33:16;;;;;;;2.50;1.80;;;16.00;59.10;16.10;102229.00;;;;5034819;28;20170;-45
2024/01/28 06:35:42;;;;;;;2.17;1.67;;;16.10;59.10;16.20;102223.00;;;;5036796;28;20229;-45
2024/01/28 06:38:08;;;;;;;3.00;1.90;;;16.10;59.00;16.30;102232.00;;;;5035409;28;20187;-45
2024/01/28 06:40:33;;;;;;;4.93;1.80;;;16.20;59.10;16.30;102212.00;;;;5034112;28;20181;-46
2024/01/28 06:42:59;;;;;;;4.27;1.80;;;16.20;59.20;16.40;102224.00;;;;5034994;28;20181;-45
2024/01/28 06:45:25;;;;;;;3.30;1.67;;;16.20;59.20;16.50;102225.00;;;;5033873;28;20668;-45
2024/01/28 06:47:50;;;;;;;2.50;1.63;;;16.30;59.20;16.50;102220.00;;;;5034924;28;20202;-45
2024/01/28 06:50:16;;;;;;;1.80;1.67;;;16.30;59.20;16.50;102224.00;;;;5034557;28;20193;-45
2024/01/28 06:52:42;;;;;;;2.00;1.80;;;16.30;59.20;16.60;102221.00;;;;5033933;28;20193;-46
2024/01/28 06:55:09;;;;;;;2.80;1.80;;;16.40;59.30;16.60;102211.00;;;;5035820;28;20224;-45
2024/01/28 06:57:34;;;;;;;3.23;1.90;;;16.30;59.30;16.70;102221.00;;;;5032950;28;20192;-44
2024/01/28 07:00:00;;;;;;;3.53;1.70;;;16.40;59.40;16.70;102211.00;;;;5035793;28;20183;-45
2024/01/28 07:02:26;;;;;;;2.53;1.73;;;16.50;59.40;16.70;102214.00;;;;5032533;28;20166;-45
2024/01/28 07:04:52;;;;;;;2.47;1.80;;;16.50;59.40;16.70;102214.00;;;;5034910;28;20175;-45
2024/01/28 07:07:18;;;;;;;2.57;1.70;;;16.40;59.30;16.80;102214.00;;;;5034705;28;20576;-46
2024/01/28 07:09:44;;;;;;;1.93;1.70;;;16.40;59.50;16.80;102208.00;;;;5040663;28;20175;-46
2024/01/28 07:12:09;;;;;;;1.70;1.60;;;16.40;59.60;16.80;102202.00;;;;5037454;28;20191;-46
2024/01/28 07:14:35;;;;;;;3.30;1.97;;;16.40;59.60;16.80;102209.00;;;;5033985;28;20187;-45
2024/01/28 07:17:01;;;;;;;2.07;1.60;;;16.40;59.60;16.80;102210.00;;;;5035719;28;20244;-45
2024/01/28 07:19:27;;;;;;;3.47;1.67;;;16.40;59.50;16.80;102213.00;;;;5035627;28;20209;-45
2024/01/28 07:21:52;;;;;;;3.23;1.90;;;16.50;59.60;16.80;102206.00;;;;5044913;28;20270;-45
2024/01/28 07:24:19;;;;;;;1.67;1.50;;;16.50;59.60;16.90;102191.00;;;;5042506;28;20539;-45
2024/01/28 07:26:46;;;;;;;3.03;1.40;;;16.50;59.60;16.90;102192.00;;;;5037897;28;20197;-45
2024/01/28 07:29:11;;;;;;;3.17;1.70;;;16.40;59.60;16.90;102203.00;;;;5039301;28;20595;-46
2024/01/28 07:31:38;;;;;;;1.50;1.40;;;16.50;59.60;16.90;102205.00;;;;5037269;28;20234;-45
2024/01/28 07:34:04;;;;;;;2.67;1.70;;;16.50;59.60;16.90;102203.00;;;;5039769;28;20263;-44
2024/01/28 07:36:30;;;;;;;2.07;1.70;;;16.50;59.60;16.90;102198.00;;;;5043563;28;20166;-51
2024/01/28 07:38:56;;;;;;;1.53;1.43;;;16.50;59.60;16.90;102201.00;;;;5040152;28;20189;-46
2024/01/28 07:41:22;;;;;;;2.00;1.80;;;16.50;59.60;16.90;102193.00;;;;5036302;28;20187;-45
2024/01/28 07:43:48;;;;;;;1.70;1.60;;;16.50;59.60;16.90;102196.00;;;;5038196;28;20642;-45
2024/01/28 07:46:14;;;;;;;1.83;1.50;;;16.50;59.60;17.00;102202.00;;;;5037648;28;20242;-45
2024/01/28 07:48:39;;;;;;;2.40;1.60;;;16.50;59.70;17.00;102195.00;;;;5035964;28;20183;-46
2024/01/28 07:51:05;;;;;;;3.90;1.80;;;16.60;59.70;17.00;102189.00;;;;5039443;28;20205;-45
2024/01/28 07:53:31;;;;;;;1.83;1.53;;;16.60;59.60;17.00;102201.00;;;;5037174;28;20181;-45
2024/01/28 07:55:57;;;;;;;1.33;1.23;;;16.50;59.60;17.00;102187.00;;;;5038653;28;20183;-45
2024/01/28 07:58:23;;;;;;;1.80;1.50;;;16.50;59.80;17.00;102190.00;;;;5035665;28;20198;-46
2024/01/28 08:00:48;;;;;;;2.10;1.30;;;16.50;59.80;17.00;102187.00;;;;5038459;28;20184;-44
2024/01/28 08:03:14;;;;;;;2.23;1.70;;;16.50;59.80;17.00;102191.00;;;;5037680;28;20844;-45
2024/01/28 08:05:40;;;;;;;1.70;1.60;;;16.50;59.70;17.00;102189.00;;;;5035397;28;20184;-44
2024/01/28 08:08:07;;;;;;;1.67;1.53;;;16.50;59.70;17.00;102175.00;;;;5035630;28;20199;-45
2024/01/28 08:10:32;;;;;;;2.50;1.63;;;16.50;59.90;17.00;102175.00;;;;5021570;28;20752;-45
2024/01/28 08:12:58;;;;;;;2.03;1.50;;;16.50;59.70;17.00;102170.00;;;;5037123;28;20175;-45
2024/01/28 08:15:24;;;;;;;1.63;1.53;;;16.60;59.70;17.00;102166.00;;;;5027119;28;20182;-45
2024/01/28 08:17:50;;;;;;;1.50;1.40;;;16.60;59.70;17.00;102163.00;;;;5036931;28;20205;-45
2024/01/28 08:20:17;;;;;;;1.67;1.57;;;16.60;59.60;17.00;102159.00;;;;5034634;28;20169;-45
2024/01/28 08:22:43;;;;;;;2.17;1.50;;;16.60;59.60;17.00;102160.00;;;;5035982;28;20258;-46
2024/01/28 08:25:08;;;;;;;1.57;1.47;;;16.60;59.70;17.00;102158.00;;;;5036574;28;20184;-45
2024/01/28 08:27:34;;;;;;;1.40;1.30;;;16.60;59.80;17.00;102162.00;;;;5036509;28;20203;-46
2024/01/28 08:30:00;;;;;;;1.83;1.70;;;16.50;59.80;17.00;102170.00;;;;5036166;28;20207;-45
2024/01/28 08:32:25;;;;;;;1.40;1.30;;;16.50;59.70;16.80;102164.00;;;;5035823;28;20209;-45
2024/01/28 08:34:51;;;;;;;1.87;1.57;;;16.60;59.90;17.00;102159.00;;;;5040732;28;20186;-45
2024/01/28 08:37:17;;;;;;;1.53;1.43;;;16.60;59.90;17.10;102160.00;;;;5037171;28;20285;-45
2024/01/28 08:39:43;;;;;;;1.77;1.57;;;16.60;60.00;17.10;102158.00;;;;5036637;28;20181;-45
2024/01/28 08:42:09;;;;;;;1.90;1.57;;;16.60;60.10;17.10;102158.00;;;;5037973;28;20196;-45
2024/01/28 08:44:35;;;;;;;1.70;1.60;;;16.60;60.40;17.10;102157.00;;;;5035580;28;20175;-46
2024/01/28 08:47:01;;;;;;;1.83;1.57;;;16.60;60.50;17.10;102148.00;;;;5038232;28;20212;-45
2024/01/28 08:49:27;;;;;;;3.77;1.80;;;16.70;60.50;17.10;102154.00;;;;5036322;28;20176;-45
2024/01/28 08:51:53;;;;;;;1.97;1.77;;;16.70;60.30;17.10;102161.00;;;;5036259;28;20719;-45
2024/01/28 08:54:19;;;;;;;1.70;1.60;;;16.60;60.20;17.10;102160.00;;;;5036244;28;20175;-45
2024/01/28 08:56:47;;;;;;;1.90;1.60;;;16.70;60.30;17.10;102154.00;;;;5035714;28;20199;-45
2024/01/28 08:59:13;;;;;;;2.57;1.80;;;16.70;60.10;17.20;102159.00;;;;5047353;28;20209;-46
2024/01/28 09:01:39;;;;;;;1.90;1.70;;;16.70;60.00;17.20;102159.00;;;;5041191;28;20412;-45
2024/01/28 09:04:05;;;;;;;2.30;1.60;;;16.70;59.90;17.20;102164.00;;;;5039794;28;20202;-45
2024/01/28 09:06:31;;;;;;;2.37;1.77;;;16.70;59.90;17.20;102158.00;;;;5037101;28;20170;-44
2024/01/28 09:08:56;;;;;;;1.87;1.70;;;16.70;59.90;17.20;102169.00;;;;5039513;28;20180;-45
2024/01/28 09:11:22;;;;;;;1.60;1.50;;;16.70;59.90;17.20;102156.00;;;;5040126;28;20205;-46
2024/01/28 09:13:48;;;;;;;1.80;1.67;;;16.70;59.90;17.20;102157.00;;;;5045316;28;20176;-45
2024/01/28 09:16:14;;;;;;;1.80;1.60;;;16.70;59.80;17.20;102146.00;;;;5037203;28;20186;-45
2024/01/28 09:18:42;;;;;;;1.60;1.50;;;16.70;59.90;17.20;102149.00;;;;5035408;28;20584;-45
2024/01/28 09:21:09;;;;;;;1.87;1.60;;;16.70;59.80;17.20;102151.00;;;;5033739;28;20201;-45
2024/01/28 09:23:35;;;;;;;3.40;1.70;;;16.70;59.80;17.20;102145.00;;;;5035760;28;20179;-46
2024/01/28 09:26:01;;;;;;;1.50;1.40;;;16.70;59.80;17.20;102150.00;;;;5038163;28;20195;-45
2024/01/28 09:28:27;;;;;;;2.50;1.60;;;16.70;59.80;17.20;102145.00;;;;5036305;28;20283;-46
2024/01/28 09:30:52;;;;;;;2.33;1.67;;;16.70;59.80;17.20;102142.00;;;;5035339;28;20274;-46
2024/01/28 09:33:18;;;;;;;1.80;1.70;;;16.80;60.10;17.20;102146.00;;;;5034607;28;20667;-45
2024/01/28 09:35:46;;;;;;;2.00;1.70;;;16.70;60.40;17.30;102138.00;;;;5036559;28;20179;-45
2024/01/28 09:38:12;;;;;;;2.40;1.70;;;16.70;60.20;17.30;102147.00;;;;5035006;28;20587;-45
2024/01/28 09:40:38;;;;;;;1.63;1.50;;;16.80;60.30;17.30;102146.00;;;;5033410;28;20175;-44
2024/01/28 09:43:21;;;;;;;2.60;1.60;;;16.80;60.20;17.30;102138.00;;;;5035481;28;20186;-45
2024/01/28 09:45:47;;;;;;;3.50;1.60;;;16.80;59.90;17.30;102135.00;;;;5033810;28;20179;-47
2024/01/28 09:48:12;;;;;;;3.73;1.70;;;16.80;60.90;17.30;102148.00;;;;5035734;28;20205;-46
2024/01/28 09:50:39;;;;;;;1.90;1.80;;;16.80;60.50;17.30;102135.00;;;;5030831;28;20586;-45
2024/01/28 09:53:05;;;;;;;2.00;1.80;;;16.80;60.60;17.30;102142.00;;;;5037836;28;20176;-45
2024/01/28 09:55:30;;;;;;;4.00;1.60;;;16.80;60.80;17.30;102139.00;;;;5032982;28;20248;-45
2024/01/28 09:57:56;;;;;;;5.73;1.93;;;16.80;60.60;17.30;102127.00;;;;5035739;28;20200;-45
2024/01/28 10:00:22;;;;;;;3.73;1.63;;;16.80;60.60;17.30;102131.00;;;;5035304;28;20239;-45
2024/01/28 10:02:48;;;;;;;4.90;1.70;;;16.80;60.80;17.30;102143.00;;;;5033643;28;20182;-44
2024/01/28 10:05:14;;;;;;;4.40;1.90;;;16.80;60.70;17.40;102142.00;;;;5035847;28;20186;-45
2024/01/28 10:07:48;;;;;;;3.73;1.97;;;16.90;60.70;17.40;102136.00;;;;5034396;28;20566;-46
2024/01/28 10:10:17;;;;;;;4.37;1.87;;;16.90;60.80;17.40;102150.00;;;;5031953;28;20828;-46
2024/01/28 10:12:49;;;;;;;3.73;1.80;;;16.90;60.70;17.40;102132.00;;;;5035010;28;20247;-45
2024/01/28 10:15:20;;;;;;;4.90;1.80;;;16.90;60.70;17.40;102139.00;;;;5034155;28;20183;-45
2024/01/28 10:17:49;;;;;;;5.27;1.87;;;16.90;60.80;17.40;102138.00;;;;5034485;28;20204;-45
2024/01/28 10:20:16;;;;;;;2.93;1.77;;;16.90;61.00;17.40;102128.00;;;;5033411;28;20676;-45
2024/01/28 10:22:42;;;;;;;3.60;1.83;;;16.90;61.20;17.40;102134.00;;;;5034149;28;20197;-45
2024/01/28 10:25:12;;;;;;;5.97;2.03;;;16.90;61.30;17.40;102133.00;;;;5036713;28;20675;-45
2024/01/28 10:27:38;;;;;;;4.10;1.63;;;16.90;61.30;17.40;102134.00;;;;5034054;28;20229;-45
2024/01/28 10:30:06;;;;;;;4.00;1.87;;;16.90;61.60;17.40;102142.00;;;;5035445;28;20651;-45
2024/01/28 10:32:32;;;;;;;2.67;1.50;;;16.90;61.80;17.40;102146.00;;;;5033484;28;20169;-45
2024/01/28 10:34:58;;;;;;;1.70;1.60;;;16.90;61.40;17.40;102134.00;;;;5038211;28;20710;-44
2024/01/28 10:37:23;;;;;;;4.23;1.80;;;16.90;61.30;17.50;102128.00;;;;5032037;28;20193;-44
2024/01/28 10:39:50;;;;;;;3.57;1.83;;;16.90;61.50;17.50;102126.00;;;;5034174;28;20183;-44
2024/01/28 10:42:19;;;;;;;2.40;1.70;;;17.00;61.50;17.50;102119.00;;;;5034548;28;20183;-44